Latest Coastal Weather Observations for Lihou Reef Lighthouse

IDQ60701

Issued at 2:25 pm EST Wednesday 24 September 2014 (issued every 10 minutes, with the page automatically refreshed every 10 minutes)

About coastal observations | Map of coastal stations | Coastal observations for QLD | Marine services | Other Formats
Station Details ID: 200880 Name: LIHOU REEF LIGHTHOUSE Lat: -17.13 Lon: 152.15 Height: 0.0 m
Data from the previous 72 hours. | See also: Recent months for locations in Queensland
Date/Time
EST
Temp

°C
Wind Pressure Rain
since 9am
mm
Weather Cloud Vis
km
Sea
Height
m
Swell
Dir
 
Speed
knots
Gust
knots
hPa Trend Height
m
Period
s
Dir
24/02:00pm 24.9 SE 15 19 1015.5 - - - - - - - - -
24/01:30pm 24.8 SE 13 16 1015.9 - - - - - - - - -
24/01:00pm 24.7 SE 14 16 1016.4 - - - - - - - - -
24/12:30pm 24.7 SE 13 16 1016.7 - - - - - - - - -
24/12:00pm 24.7 SE 14 16 1017.1 - - - - - - - - -
24/11:30am 24.7 ESE 14 16 1017.4 - - - - - - - - -
24/11:00am 24.6 ESE 14 17 1017.6 - - - - - - - - -
24/10:30am 24.6 SE 14 17 1018.2 - - - - - - - - -
24/10:00am 24.8 SE 14 17 1018.5 - - - - - - - - -
24/09:30am 24.3 SE 14 17 1018.6 - - - - - - - - -
24/09:00am 24.4 SE 14 16 1018.7 - - - - - - - - -
24/08:30am 24.2 SE 14 17 1018.6 - - - - - - - - -
24/08:00am 24.0 ESE 13 15 1018.7 - - - - - - - - -
24/07:30am 24.3 ESE 14 17 1018.4 - - - - - - - - -
24/07:00am 23.8 ESE 15 18 1018.0 - - - - - - - - -
24/06:30am 23.8 ESE 16 18 1017.5 - - - - - - - - -
24/06:00am 24.0 ESE 16 18 1017.3 - - - - - - - - -
24/05:30am 24.1 ESE 15 18 1016.9 - - - - - - - - -
24/05:00am 24.3 ESE 14 16 1016.6 - - - - - - - - -
24/04:30am 24.4 E 15 19 1016.2 - - - - - - - - -
24/04:00am 23.9 E 14 17 1016.0 - - - - - - - - -
24/03:30am 24.1 ESE 16 19 1015.9 - - - - - - - - -
24/03:00am 24.2 E 15 18 1015.8 - - - - - - - - -
24/02:30am 24.5 ESE 14 16 1015.9 - - - - - - - - -
24/02:00am 24.4 ESE 15 18 1016.0 - - - - - - - - -
24/01:30am 24.5 ESE 16 19 1016.3 - - - - - - - - -
24/01:00am 24.3 E 17 19 1016.5 - - - - - - - - -
24/12:30am 24.2 E 15 18 1017.0 - - - - - - - - -
24/12:00am 23.7 E 16 19 1017.4 - - - - - - - - -
 
Date/Time
EST
Temp

°C
Wind Pressure Rain
since 9am
mm
Weather Cloud Vis
km
Sea
Height
m
Swell
Dir
 
Speed
knots
Gust
knots
hPa Trend Height
m
Period
s
Dir
23/11:30pm 23.8 E 14 17 1017.9 - - - - - - - - -
23/11:00pm 23.2 E 16 19 1018.3 - - - - - - - - -
23/10:30pm 23.2 E 17 21 1018.5 - - - - - - - - -
23/10:00pm 23.0 E 17 19 1018.8 - - - - - - - - -
23/09:30pm 23.8 E 18 22 1018.8 - - - - - - - - -
23/09:00pm 23.8 E 19 22 1018.6 - - - - - - - - -
23/08:30pm 23.7 E 19 23 1018.3 - - - - - - - - -
23/08:00pm 23.7 E 17 20 1018.4 - - - - - - - - -
23/07:30pm 23.6 E 16 20 1018.0 - - - - - - - - -
23/07:00pm 23.6 E 19 22 1017.5 - - - - - - - - -
23/06:30pm 23.6 E 18 21 1017.3 - - - - - - - - -
23/06:00pm 23.6 E 19 22 1017.0 - - - - - - - - -
23/05:30pm 23.7 E 20 23 1016.6 - - - - - - - - -
23/05:00pm 23.7 E 19 22 1016.4 - - - - - - - - -
23/04:30pm 23.7 E 19 22 1016.1 - - - - - - - - -
23/04:00pm 23.9 ESE 20 24 1015.9 - - - - - - - - -
23/03:30pm 23.7 E 22 26 1015.6 - - - - - - - - -
23/03:00pm 23.7 ESE 21 26 1015.5 - - - - - - - - -
23/02:30pm 23.9 E 20 23 1015.9 - - - - - - - - -
23/02:00pm 23.6 ESE 20 24 1016.3 - - - - - - - - -
23/01:30pm 23.4 ESE 19 23 1016.5 - - - - - - - - -
23/01:00pm 23.4 ESE 20 24 1016.8 - - - - - - - - -
23/12:30pm 23.3 ESE 21 25 1017.1 - - - - - - - - -
23/12:00pm 23.3 ESE 21 26 1017.3 - - - - - - - - -
23/11:30am 22.9 E 21 24 1017.8 - - - - - - - - -
23/11:00am 23.3 E 21 24 1018.3 - - - - - - - - -
23/10:30am 23.2 E 20 25 1018.6 - - - - - - - - -
23/10:00am 23.2 ESE 21 25 1018.8 - - - - - - - - -
23/09:30am 22.9 ESE 21 25 1018.9 - - - - - - - - -
23/09:00am 22.7 ESE 22 28 1018.6 - - - - - - - - -
23/08:30am 23.1 ESE 21 26 1018.5 - - - - - - - - -
23/08:00am 22.9 ESE 20 24 1018.3 - - - - - - - - -
23/07:30am 22.1 ESE 21 26 1017.6 - - - - - - - - -
23/07:00am 22.6 ESE 17 20 1017.8 - - - - - - - - -
23/06:30am 22.4 E 17 20 1017.4 - - - - - - - - -
23/06:00am 22.4 ESE 18 23 1016.9 - - - - - - - - -
23/05:30am 22.3 ESE 17 20 1016.6 - - - - - - - - -
23/05:00am 22.6 ESE 19 23 1015.8 - - - - - - - - -
23/04:30am 22.4 ESE 16 20 1015.0 - - - - - - - - -
23/04:00am 22.2 ESE 13 15 1015.3 - - - - - - - - -
23/03:30am 22.3 SE 8 10 1015.6 - - - - - - - - -
23/03:00am 21.7 ESE 10 12 1015.4 - - - - - - - - -
23/02:30am 21.1 ESE 10 12 1015.3 - - - - - - - - -
23/02:00am 20.6 E 13 15 1015.4 - - - - - - - - -
23/01:30am 19.9 SE 6 8 1016.0 - - - - - - - - -
23/01:05am 19.9 S 19 22 1016.3 - - - - - - - - -
23/01:00am 21.7 SE 21 24 1016.2 - - - - - - - - -
23/12:30am 21.5 SE 19 23 1016.6 - - - - - - - - -
23/12:00am 21.9 ESE 15 18 1016.6 - - - - - - - - -
 
Date/Time
EST
Temp

°C
Wind Pressure Rain
since 9am
mm
Weather Cloud Vis
km
Sea
Height
m
Swell
Dir
 
Speed
knots
Gust
knots
hPa Trend Height
m
Period
s
Dir
22/11:30pm 22.0 ESE 14 16 1016.8 - - - - - - - - -
22/11:00pm 21.5 ESE 15 18 1017.3 - - - - - - - - -
22/10:30pm 22.0 ESE 16 20 1017.5 - - - - - - - - -
22/10:00pm 21.7 ESE 17 19 1017.4 - - - - - - - - -
22/09:30pm 22.0 ESE 18 20 1017.6 - - - - - - - - -
22/09:00pm 21.9 ESE 19 22 1017.3 - - - - - - - - -
22/08:30pm 21.8 ESE 21 25 1016.9 - - - - - - - - -
22/08:00pm 21.6 ESE 19 23 1016.8 - - - - - - - - -
22/07:30pm 22.0 ESE 20 24 1016.5 - - - - - - - - -
22/07:00pm 22.1 ESE 19 22 1016.1 - - - - - - - - -
22/06:30pm 22.2 E 19 22 1015.7 - - - - - - - - -
22/06:00pm 22.2 ESE 19 22 1015.3 - - - - - - - - -
22/05:30pm 22.1 E 17 20 1015.1 - - - - - - - - -
22/05:00pm 22.3 ESE 16 19 1014.8 - - - - - - - - -
22/04:30pm 22.2 E 16 19 1014.5 - - - - - - - - -
22/04:00pm 22.8 ESE 18 22 1014.2 - - - - - - - - -
22/03:30pm 22.6 ESE 18 21 1013.8 - - - - - - - - -
22/03:00pm 22.9 ESE 20 23 1013.9 - - - - - - - - -
22/02:30pm 23.0 ESE 19 22 1014.0 - - - - - - - - -
22/02:00pm 22.9 ESE 21 24 1014.2 - - - - - - - - -
22/01:30pm 23.0 ESE 22 25 1014.3 - - - - - - - - -
22/01:00pm 23.4 ESE 20 23 1014.4 - - - - - - - - -
22/12:30pm 23.6 SE 19 24 1015.1 - - - - - - - - -
22/12:00pm 23.3 SE 20 24 1015.5 - - - - - - - - -
22/11:30am 23.3 SE 19 23 1016.0 - - - - - - - - -
22/11:00am 23.9 ESE 20 24 1016.3 - - - - - - - - -
22/10:30am 23.6 ESE 20 25 1016.5 - - - - - - - - -
22/10:00am 23.5 ESE 19 24 1016.7 - - - - - - - - -
22/09:30am 23.6 ESE 21 24 1016.5 - - - - - - - - -
22/09:00am 23.7 ESE 21 26 1016.5 - - - - - - - - -
22/08:30am 23.7 ESE 21 25 1016.7 - - - - - - - - -
22/08:00am 23.4 ESE 20 23 1016.7 - - - - - - - - -
22/07:30am 23.6 ESE 21 24 1016.5 - - - - - - - - -
22/07:00am 23.5 ESE 22 26 1015.9 - - - - - - - - -
22/06:30am 23.5 ESE 21 24 1015.6 - - - - - - - - -
22/06:00am 23.3 ESE 22 27 1015.4 - - - - - - - - -
22/05:30am 23.0 SE 22 26 1015.0 - - - - - - - - -
22/05:00am 22.9 ESE 22 27 1014.7 - - - - - - - - -
22/04:30am 22.6 ESE 22 26 1014.4 - - - - - - - - -
22/04:00am 22.8 ESE 20 23 1014.3 - - - - - - - - -
22/03:30am 22.4 ESE 22 25 1014.3 - - - - - - - - -
22/03:00am 22.9 SE 22 26 1014.4 - - - - - - - - -
22/02:30am 22.9 ESE 20 25 1014.6 - - - - - - - - -
22/02:00am 22.5 ESE 21 26 1015.0 - - - - - - - - -
22/01:30am 22.2 SE 24 27 1015.2 - - - - - - - - -
22/01:00am 21.9 SE 23 27 1015.6 - - - - - - - - -
22/12:30am 22.4 SE 20 24 1016.2 - - - - - - - - -
22/12:00am 22.8 ESE 18 23 1016.2 - - - - - - - - -
 
Date/Time
EST
Temp

°C
Wind Pressure Rain
since 9am
mm
Weather Cloud Vis
km
Sea
Height
m
Swell
Dir
 
Speed
knots
Gust
knots
hPa Trend Height
m
Period
s
Dir
21/11:30pm 22.8 SE 19 25 1016.6 - - - - - - - - -
21/11:00pm 24.1 ESE 20 24 1017.0 - - - - - - - - -
21/10:30pm 24.2 ESE 22 26 1016.9 - - - - - - - - -
21/10:00pm 23.9 ESE 22 25 1016.6 - - - - - - - - -
21/09:30pm 23.9 ESE 22 27 1016.6 - - - - - - - - -
21/09:00pm 23.7 ESE 22 26 1016.5 - - - - - - - - -
21/08:30pm 24.0 ESE 22 26 1016.4 - - - - - - - - -
21/08:00pm 24.1 ESE 21 26 1016.3 - - - - - - - - -
21/07:30pm 24.0 ESE 22 26 1016.2 - - - - - - - - -
21/07:00pm 24.0 ESE 22 25 1015.7 - - - - - - - - -
21/06:30pm 24.1 SE 21 25 1015.4 - - - - - - - - -
21/06:00pm 24.1 ESE 22 24 1015.3 - - - - - - - - -
21/05:30pm 24.0 ESE 21 25 1015.1 - - - - - - - - -
21/05:00pm 24.0 SE 21 25 1014.9 - - - - - - - - -
21/04:30pm 24.0 ESE 23 26 1014.8 - - - - - - - - -
21/04:00pm 24.2 SE 23 27 1014.5 - - - - - - - - -
21/03:30pm 24.0 SE 21 27 1014.6 - - - - - - - - -
21/03:00pm 24.0 SE 22 25 1014.9 - - - - - - - - -
21/02:30pm 24.1 SE 21 25 1014.9 - - - - - - - - -

Other Formats:

Comma delimited format used in spreadsheet applications
http://www.bom.gov.au/fwo/IDQ60701/IDQ60701.94293.axf

JavaScript Object Notation format (JSON) in row-major order
http://www.bom.gov.au/fwo/IDQ60701/IDQ60701.94293.json